createdAt,value
2022-12-07T00:01:42.432Z,26.55
2022-12-07T00:04:08.746Z,26.72
2022-12-07T00:06:35.035Z,26.59
2022-12-07T00:09:01.278Z,27.07
2022-12-07T00:11:27.518Z,26.97
2022-12-07T00:13:53.774Z,27.89
2022-12-07T00:16:20.080Z,27.33
2022-12-07T00:18:46.422Z,26.72
2022-12-07T00:21:12.698Z,25.36
2022-12-07T00:23:38.949Z,26.73
2022-12-07T00:26:05.190Z,26.43
2022-12-07T00:28:31.450Z,27.19
2022-12-07T00:30:57.690Z,26.22
2022-12-07T00:33:23.930Z,27.54
2022-12-07T00:35:50.210Z,28.33
2022-12-07T00:38:16.465Z,27.51
2022-12-07T00:40:42.718Z,27.64
2022-12-07T00:43:08.954Z,25.94
2022-12-07T00:45:35.278Z,24.49
2022-12-07T00:48:01.651Z,24.99
2022-12-07T00:50:27.890Z,25.01
2022-12-07T00:52:54.125Z,24.70
2022-12-07T00:55:20.371Z,23.83
2022-12-07T00:57:46.620Z,24.55
2022-12-07T01:00:12.858Z,23.35
2022-12-07T01:02:39.129Z,23.46
2022-12-07T01:05:05.405Z,24.40
2022-12-07T01:07:31.658Z,23.78
2022-12-07T01:09:57.901Z,23.02
2022-12-07T01:12:24.145Z,23.19
2022-12-07T01:14:50.408Z,22.54
2022-12-07T01:17:16.654Z,23.53
2022-12-07T01:19:42.909Z,23.10
2022-12-07T01:22:09.170Z,23.02
2022-12-07T01:24:35.425Z,23.17
2022-12-07T01:27:01.714Z,21.95
2022-12-07T01:29:27.988Z,22.37
2022-12-07T01:31:54.249Z,23.19
2022-12-07T01:34:20.514Z,22.56
2022-12-07T01:36:46.780Z,23.26
2022-12-07T01:39:13.029Z,23.65
2022-12-07T01:41:39.314Z,23.17
2022-12-07T01:44:05.588Z,23.95
2022-12-07T01:46:31.912Z,23.84
2022-12-07T01:48:58.297Z,23.78
2022-12-07T01:51:24.574Z,24.06
2022-12-07T01:53:50.817Z,24.18
2022-12-07T01:56:17.059Z,23.73
2022-12-07T01:58:43.302Z,24.24
2022-12-07T02:01:09.630Z,24.49
2022-12-07T02:03:35.933Z,23.89
2022-12-07T02:06:02.203Z,25.45
2022-12-07T02:08:28.520Z,24.57
2022-12-07T02:10:54.807Z,26.61
2022-12-07T02:13:21.076Z,25.80
2022-12-07T02:15:47.400Z,25.50
2022-12-07T02:18:13.692Z,24.61
2022-12-07T02:20:39.963Z,25.84
2022-12-07T02:23:06.237Z,25.84
2022-12-07T02:25:32.492Z,24.98
2022-12-07T02:27:58.742Z,24.97
2022-12-07T02:30:24.993Z,24.05
2022-12-07T02:32:51.234Z,24.66
2022-12-07T02:35:17.478Z,24.63
2022-12-07T02:37:43.742Z,23.69
2022-12-07T02:40:10.022Z,23.22
2022-12-07T02:42:36.268Z,23.62
2022-12-07T02:45:02.526Z,23.33
2022-12-07T02:47:28.793Z,23.94
2022-12-07T02:49:55.060Z,24.14
2022-12-07T02:52:21.330Z,24.04
2022-12-07T02:54:47.592Z,24.33
2022-12-07T02:57:13.827Z,24.42
2022-12-07T02:59:40.090Z,23.65
2022-12-07T03:02:06.419Z,24.00
2022-12-07T03:04:32.718Z,25.07
2022-12-07T03:06:59.007Z,25.14
2022-12-07T03:09:25.254Z,25.20
2022-12-07T03:11:51.513Z,25.04
2022-12-07T03:14:17.778Z,25.34
2022-12-07T03:16:44.034Z,25.76
2022-12-07T03:19:10.302Z,25.80
2022-12-07T03:21:36.568Z,26.81
2022-12-07T03:24:02.826Z,26.09
2022-12-07T03:26:29.074Z,27.55
2022-12-07T03:28:55.318Z,27.13
2022-12-07T03:31:21.678Z,27.76
2022-12-07T03:33:47.970Z,28.21
2022-12-07T03:36:14.230Z,28.67
2022-12-07T03:38:40.498Z,28.52
2022-12-07T03:41:06.745Z,28.23
2022-12-07T03:43:33.018Z,29.33
2022-12-07T03:45:59.305Z,30.53
2022-12-07T03:48:25.742Z,29.38
2022-12-07T03:50:51.983Z,29.62
2022-12-07T03:53:18.264Z,29.03
2022-12-07T03:55:44.505Z,29.04
2022-12-07T03:58:10.817Z,30.27
2022-12-07T04:00:37.094Z,29.29
2022-12-07T04:03:03.401Z,29.70
2022-12-07T04:05:29.670Z,29.44
2022-12-07T04:07:56.017Z,29.57
2022-12-07T04:10:22.344Z,29.00
2022-12-07T04:12:48.620Z,29.84
2022-12-07T04:15:14.868Z,28.24
2022-12-07T04:17:41.139Z,28.89
2022-12-07T04:20:07.404Z,28.94
2022-12-07T04:22:33.695Z,29.21
2022-12-07T04:24:59.934Z,28.84
2022-12-07T04:27:26.174Z,30.45
2022-12-07T04:29:52.432Z,28.99
2022-12-07T04:32:18.698Z,28.58
2022-12-07T04:34:44.963Z,29.61
2022-12-07T04:37:11.221Z,29.42
2022-12-07T04:39:37.462Z,29.25
2022-12-07T04:42:03.710Z,29.72
2022-12-07T04:44:29.965Z,30.91
2022-12-07T04:46:56.300Z,29.82
2022-12-07T04:49:22.610Z,31.47
2022-12-07T04:51:48.861Z,30.46
2022-12-07T04:54:15.121Z,28.99
2022-12-07T04:56:41.383Z,30.42
2022-12-07T04:59:07.661Z,30.51
2022-12-07T05:01:33.926Z,30.47
2022-12-07T05:04:00.165Z,29.72
2022-12-07T05:06:26.431Z,29.11
2022-12-07T05:08:52.702Z,28.70
2022-12-07T05:11:18.969Z,29.64
2022-12-07T05:13:45.212Z,29.69
2022-12-07T05:16:11.531Z,29.61
2022-12-07T05:18:37.814Z,30.35
2022-12-07T05:21:04.134Z,30.67
2022-12-07T05:23:30.394Z,29.91
2022-12-07T05:25:56.757Z,28.09
2022-12-07T05:28:23.002Z,29.08
2022-12-07T05:30:49.271Z,29.91
2022-12-07T05:33:15.541Z,30.42
2022-12-07T05:35:41.814Z,30.24
2022-12-07T05:38:08.117Z,30.30
2022-12-07T05:40:34.383Z,29.38
2022-12-07T05:43:04.617Z,30.43
2022-12-07T05:45:31.316Z,30.63
2022-12-07T05:47:57.664Z,30.55
2022-12-07T05:50:23.944Z,30.25
2022-12-07T05:52:50.203Z,29.76
2022-12-07T05:55:16.465Z,30.38
2022-12-07T05:57:42.733Z,33.08
2022-12-07T06:00:08.975Z,31.81
2022-12-07T06:02:35.291Z,29.95
2022-12-07T06:05:01.690Z,29.91
2022-12-07T06:07:27.952Z,30.65
2022-12-07T06:09:54.206Z,29.42
2022-12-07T06:12:20.465Z,29.24
2022-12-07T06:14:46.712Z,28.17
2022-12-07T06:17:12.973Z,26.30
2022-12-07T06:19:39.246Z,25.72
2022-12-07T06:22:05.517Z,28.05
2022-12-07T06:24:31.811Z,27.73
2022-12-07T06:26:58.069Z,27.47
2022-12-07T06:29:24.337Z,27.07
2022-12-07T06:31:50.620Z,27.71
2022-12-07T06:34:16.931Z,27.23
2022-12-07T06:36:43.201Z,27.13
2022-12-07T06:39:09.446Z,27.40
2022-12-07T06:41:35.715Z,26.84
2022-12-07T06:44:01.982Z,27.13
2022-12-07T06:46:28.347Z,26.09
2022-12-07T06:48:54.670Z,25.37
2022-12-07T06:51:20.905Z,23.95
2022-12-07T06:53:47.171Z,23.30
2022-12-07T06:56:13.425Z,24.09
2022-12-07T06:58:39.697Z,24.45
2022-12-07T07:01:06.001Z,23.18
2022-12-07T07:03:32.298Z,22.38
2022-12-07T07:05:58.554Z,21.37
2022-12-07T07:08:24.878Z,21.78
2022-12-07T07:10:51.165Z,21.67
2022-12-07T07:13:17.510Z,22.29
2022-12-07T07:15:43.751Z,21.89
2022-12-07T07:18:10.005Z,22.03
2022-12-07T07:20:36.281Z,21.79
2022-12-07T07:23:02.524Z,21.88
2022-12-07T07:25:28.792Z,23.43
2022-12-07T07:27:55.047Z,23.64
2022-12-07T07:30:21.287Z,22.17
2022-12-07T07:32:47.545Z,23.08
2022-12-07T07:35:13.801Z,23.41
2022-12-07T07:37:40.062Z,22.20
2022-12-07T07:40:06.305Z,22.73
2022-12-07T07:42:32.562Z,21.83
2022-12-07T07:44:58.822Z,22.70
2022-12-07T07:47:25.064Z,22.91
2022-12-07T07:49:51.330Z,22.59
2022-12-07T07:52:17.586Z,22.71
2022-12-07T07:54:43.833Z,22.51
2022-12-07T07:57:10.078Z,23.56
2022-12-07T07:59:36.345Z,22.75
2022-12-07T08:02:02.655Z,24.68
2022-12-07T08:04:29.012Z,24.72
2022-12-07T08:06:55.309Z,25.52
2022-12-07T08:09:21.565Z,25.25
2022-12-07T08:11:47.815Z,25.41
2022-12-07T08:14:14.070Z,25.66
2022-12-07T08:16:40.318Z,25.24
2022-12-07T08:19:06.554Z,25.23
2022-12-07T08:21:32.806Z,25.99
2022-12-07T08:23:59.042Z,26.09
2022-12-07T08:26:25.292Z,25.51
2022-12-07T08:28:51.555Z,24.85
2022-12-07T08:31:17.896Z,25.13
2022-12-07T08:33:44.226Z,23.67
2022-12-07T08:36:10.521Z,24.61
2022-12-07T08:38:36.778Z,25.12
2022-12-07T08:41:03.022Z,24.55
2022-12-07T08:43:29.405Z,25.31
2022-12-07T08:45:55.734Z,25.71
2022-12-07T08:48:22.030Z,25.52
2022-12-07T08:50:49.898Z,23.89
2022-12-07T08:53:16.394Z,25.53
2022-12-07T08:55:42.652Z,24.34
2022-12-07T08:58:08.930Z,25.35
2022-12-07T09:00:35.192Z,25.91
2022-12-07T09:03:01.449Z,24.73
2022-12-07T09:05:27.769Z,25.00
2022-12-07T09:07:54.080Z,25.57
2022-12-07T09:10:20.388Z,25.64
2022-12-07T09:12:46.630Z,22.90
2022-12-07T09:15:12.866Z,21.71
2022-12-07T09:17:39.127Z,20.84
2022-12-07T09:20:05.687Z,21.08
2022-12-07T09:22:32.314Z,21.85
2022-12-07T09:24:58.587Z,23.05
2022-12-07T09:27:24.843Z,22.89
2022-12-07T09:29:51.118Z,21.89
2022-12-07T09:32:17.399Z,21.17
2022-12-07T09:34:43.716Z,21.95
2022-12-07T09:37:10.028Z,21.74
2022-12-07T09:39:36.293Z,21.69
2022-12-07T09:42:02.539Z,22.17
2022-12-07T09:44:28.775Z,21.73
2022-12-07T09:46:55.120Z,21.07
2022-12-07T09:49:21.423Z,22.43
2022-12-07T09:51:47.676Z,22.15
2022-12-07T09:54:13.939Z,21.55
2022-12-07T09:56:40.190Z,22.07
2022-12-07T09:59:06.453Z,23.46
2022-12-07T10:01:32.782Z,22.22
2022-12-07T10:03:59.157Z,23.68
2022-12-07T10:06:25.417Z,23.65
2022-12-07T10:08:51.664Z,24.51
2022-12-07T10:11:17.922Z,23.70
2022-12-07T10:13:44.376Z,23.66
2022-12-07T10:16:10.650Z,24.29
2022-12-07T10:18:36.923Z,24.07
2022-12-07T10:21:03.171Z,24.13
2022-12-07T10:23:29.413Z,24.63
2022-12-07T10:25:55.654Z,24.49
2022-12-07T10:28:21.921Z,24.47
2022-12-07T10:30:48.157Z,25.16
2022-12-07T10:33:14.426Z,24.49
2022-12-07T10:35:40.693Z,24.68
2022-12-07T10:38:06.934Z,25.26
2022-12-07T10:40:33.199Z,26.41
2022-12-07T10:42:59.446Z,25.11
2022-12-07T10:45:25.727Z,24.51
2022-12-07T10:47:51.982Z,25.16
2022-12-07T10:50:18.291Z,24.57
2022-12-07T10:52:44.575Z,25.35
2022-12-07T10:55:10.849Z,25.99
2022-12-07T10:57:37.126Z,26.11
2022-12-07T11:00:03.376Z,26.83
2022-12-07T11:02:29.686Z,27.70
2022-12-07T11:04:55.944Z,25.88
2022-12-07T11:07:22.213Z,25.95
2022-12-07T11:12:34.703Z,26.46
2022-12-07T11:15:00.962Z,27.34
2022-12-07T11:17:27.210Z,25.98
2022-12-07T11:19:53.460Z,25.88
2022-12-07T11:22:19.726Z,26.58
2022-12-07T11:24:45.989Z,27.11
2022-12-07T11:27:12.264Z,26.78
2022-12-07T11:29:38.529Z,26.83
2022-12-07T11:32:04.795Z,26.92
2022-12-07T11:34:31.085Z,26.18
2022-12-07T11:36:57.346Z,27.43
2022-12-07T11:39:23.586Z,26.52
2022-12-07T11:41:49.846Z,26.07
2022-12-07T11:44:16.117Z,25.00
2022-12-07T11:46:42.394Z,26.19
2022-12-07T11:49:08.662Z,26.51
2022-12-07T11:51:34.918Z,26.60
2022-12-07T11:54:01.175Z,26.54
2022-12-07T11:56:27.415Z,26.23
2022-12-07T11:58:53.673Z,25.75
2022-12-07T12:01:19.941Z,25.29
2022-12-07T12:03:52.553Z,24.30
2022-12-07T12:06:19.462Z,25.55
2022-12-07T12:11:31.938Z,26.05
2022-12-07T12:16:44.484Z,25.56
2022-12-07T12:19:10.780Z,25.09
2022-12-07T12:21:37.068Z,23.85
2022-12-07T12:24:03.341Z,23.96
2022-12-07T12:26:29.656Z,22.04
2022-12-07T12:28:55.956Z,23.34
2022-12-07T12:31:22.272Z,23.36
2022-12-07T12:33:48.593Z,23.45
2022-12-07T12:36:14.902Z,24.66
2022-12-07T12:38:41.211Z,23.45
2022-12-07T12:41:07.485Z,23.79
2022-12-07T12:43:33.738Z,24.01
2022-12-07T12:46:00.016Z,23.30
2022-12-07T12:48:26.375Z,24.31
2022-12-07T12:50:52.634Z,24.12
2022-12-07T12:53:18.879Z,23.15
2022-12-07T12:55:45.141Z,23.12
2022-12-07T12:58:11.393Z,25.03
2022-12-07T13:00:37.649Z,24.94
2022-12-07T13:03:07.517Z,24.13
2022-12-07T13:05:36.434Z,24.10
2022-12-07T13:08:02.771Z,22.82
2022-12-07T13:10:29.092Z,23.03
2022-12-07T13:12:55.358Z,24.48
2022-12-07T13:15:21.602Z,24.91
2022-12-07T13:17:47.857Z,25.94
2022-12-07T13:20:17.532Z,24.73
2022-12-07T13:22:44.114Z,26.21
2022-12-07T13:25:10.373Z,25.34
2022-12-07T13:27:36.618Z,25.51
2022-12-07T13:30:02.943Z,24.64
2022-12-07T13:32:29.238Z,24.22
2022-12-07T13:34:55.482Z,24.11
2022-12-07T13:37:21.777Z,24.85
2022-12-07T13:39:48.062Z,22.52
2022-12-07T13:42:14.321Z,22.30
2022-12-07T13:44:42.340Z,22.07
2022-12-07T13:47:08.933Z,21.60
2022-12-07T13:49:35.182Z,21.51
2022-12-07T13:52:01.443Z,21.62
2022-12-07T13:54:27.683Z,21.30
2022-12-07T13:56:53.930Z,21.44
2022-12-07T13:59:20.179Z,19.64
2022-12-07T14:01:46.507Z,21.52
2022-12-07T14:04:12.789Z,20.52
2022-12-07T14:06:39.030Z,19.12
2022-12-07T14:09:05.285Z,19.98
2022-12-07T14:11:31.532Z,20.38
2022-12-07T14:13:57.873Z,19.68
2022-12-07T14:16:24.191Z,19.54
2022-12-07T14:18:50.478Z,20.86
2022-12-07T14:21:16.745Z,20.60
2022-12-07T14:23:43.026Z,22.01
2022-12-07T14:26:09.279Z,20.45
2022-12-07T14:28:35.553Z,20.78
2022-12-07T14:31:01.893Z,19.09
2022-12-07T14:33:28.225Z,19.52
2022-12-07T14:35:54.499Z,19.44
2022-12-07T14:38:20.764Z,19.97
2022-12-07T14:40:47.029Z,20.81
2022-12-07T14:43:13.301Z,20.05
2022-12-07T14:45:39.594Z,19.75
2022-12-07T14:53:38.302Z,20.31
2022-12-07T14:56:04.560Z,20.27
2022-12-07T14:58:30.804Z,20.15
2022-12-07T15:00:57.062Z,19.97
2022-12-07T15:03:23.394Z,19.55
2022-12-07T15:05:49.693Z,19.96
2022-12-07T15:08:15.997Z,20.66
2022-12-07T15:10:42.326Z,20.11
2022-12-07T15:13:08.593Z,19.40
2022-12-07T15:15:34.882Z,20.61
2022-12-07T15:18:01.170Z,21.18
2022-12-07T15:20:27.421Z,20.88
2022-12-07T15:22:53.666Z,21.06
2022-12-07T15:25:19.914Z,20.91
2022-12-07T15:27:46.164Z,18.93
2022-12-07T15:30:12.417Z,19.64
2022-12-07T15:32:38.778Z,19.05
2022-12-07T15:35:05.528Z,20.17
2022-12-07T15:37:32.015Z,19.74
2022-12-07T15:40:02.696Z,19.80
2022-12-07T15:42:32.102Z,19.84
2022-12-07T15:44:58.371Z,19.52
2022-12-07T15:47:24.622Z,20.10
2022-12-07T15:49:50.870Z,19.07
2022-12-07T15:52:17.125Z,20.27
2022-12-07T15:54:43.386Z,20.40
2022-12-07T15:57:09.641Z,18.98
2022-12-07T15:59:35.919Z,21.55
2022-12-07T16:02:02.262Z,22.03
2022-12-07T16:04:28.566Z,20.22
2022-12-07T16:06:54.853Z,26.08
2022-12-07T16:09:21.102Z,22.77
2022-12-07T16:11:47.516Z,20.15
2022-12-07T16:14:13.779Z,20.84
2022-12-07T16:16:40.114Z,22.18
2022-12-07T16:19:06.399Z,26.38
2022-12-07T16:21:32.644Z,25.99
2022-12-07T16:23:58.883Z,23.41
2022-12-07T16:26:25.150Z,22.07
2022-12-07T16:28:51.434Z,22.76
2022-12-07T16:31:17.741Z,23.05
2022-12-07T16:33:44.010Z,21.72
2022-12-07T16:36:10.258Z,21.27
2022-12-07T16:38:36.495Z,22.49
2022-12-07T16:41:02.763Z,23.37
2022-12-07T16:43:29.034Z,23.58
2022-12-07T16:45:55.292Z,23.21
2022-12-07T16:48:21.565Z,25.71
2022-12-07T16:50:51.210Z,21.48
2022-12-07T16:53:18.027Z,22.53
2022-12-07T16:55:44.289Z,23.68
2022-12-07T16:58:10.552Z,22.53
2022-12-07T17:00:36.845Z,23.37
2022-12-07T17:03:03.137Z,24.46
2022-12-07T17:05:29.392Z,21.77
2022-12-07T17:07:55.696Z,21.63
2022-12-07T17:10:21.981Z,20.91
2022-12-07T17:12:48.231Z,22.48
2022-12-07T17:15:14.478Z,23.03
2022-12-07T17:17:40.748Z,23.22
2022-12-07T17:20:07.100Z,22.01
2022-12-07T17:22:33.365Z,22.59
2022-12-07T17:24:59.654Z,21.31
2022-12-07T17:27:26.025Z,21.66
2022-12-07T17:29:52.266Z,20.62
2022-12-07T17:32:18.528Z,21.20
2022-12-07T17:34:44.811Z,21.29
2022-12-07T17:37:11.073Z,19.32
2022-12-07T17:39:37.327Z,19.46
2022-12-07T17:42:03.575Z,19.33
2022-12-07T17:44:29.839Z,19.07
2022-12-07T17:46:56.098Z,19.35
2022-12-07T17:49:22.341Z,20.12
2022-12-07T17:51:48.600Z,19.07
2022-12-07T17:54:14.869Z,17.77
2022-12-07T17:56:41.131Z,17.22
2022-12-07T17:59:07.381Z,17.32
2022-12-07T18:01:34.953Z,17.74
2022-12-07T18:04:01.469Z,17.45
2022-12-07T18:06:27.718Z,14.77
2022-12-07T18:08:53.980Z,16.23
2022-12-07T18:11:20.233Z,18.98
2022-12-07T18:13:46.505Z,19.75
2022-12-07T18:16:12.787Z,19.23
2022-12-07T18:18:39.066Z,20.65
2022-12-07T18:21:05.311Z,18.63
2022-12-07T18:23:31.574Z,18.66
2022-12-07T18:25:57.858Z,18.77
2022-12-07T18:28:24.126Z,19.65
2022-12-07T18:31:14.312Z,19.26
2022-12-07T18:33:36.599Z,19.66
2022-12-07T18:36:02.860Z,20.25
2022-12-07T18:38:29.123Z,20.22
2022-12-07T18:40:55.389Z,20.90
2022-12-07T18:43:21.642Z,23.41
2022-12-07T18:45:52.703Z,24.00
2022-12-07T18:48:22.099Z,26.86
2022-12-07T18:50:48.350Z,33.60
2022-12-07T18:53:14.610Z,34.19
2022-12-07T18:55:40.846Z,25.29
2022-12-07T18:58:07.086Z,23.19
2022-12-07T19:00:33.350Z,23.38
2022-12-07T19:02:59.672Z,22.93
2022-12-07T19:05:26.025Z,22.94
2022-12-07T19:07:52.282Z,22.93
2022-12-07T19:10:18.563Z,21.72
2022-12-07T19:12:44.840Z,22.15
2022-12-07T19:15:11.090Z,20.75
2022-12-07T19:17:37.366Z,23.74
2022-12-07T19:20:03.631Z,25.39
2022-12-07T19:22:29.882Z,24.05
2022-12-07T19:24:56.141Z,23.08
2022-12-07T19:27:22.394Z,21.74
2022-12-07T19:29:48.656Z,22.05
2022-12-07T19:32:14.946Z,23.21
2022-12-07T19:34:41.254Z,23.22
2022-12-07T19:37:07.501Z,22.94
2022-12-07T19:39:33.766Z,24.39
2022-12-07T19:42:00.037Z,24.96
2022-12-07T19:44:26.303Z,22.00
2022-12-07T19:46:52.574Z,20.45
2022-12-07T19:49:18.838Z,19.70
2022-12-07T19:51:45.123Z,19.86
2022-12-07T19:54:11.393Z,20.03
2022-12-07T19:56:37.658Z,20.19
2022-12-07T19:59:03.937Z,20.01
2022-12-07T20:01:30.242Z,19.71
2022-12-07T20:03:56.525Z,20.86
2022-12-07T20:06:22.802Z,21.90
2022-12-07T20:08:49.060Z,21.35
2022-12-07T20:11:15.317Z,19.64
2022-12-07T20:13:41.582Z,20.41
2022-12-07T20:16:19.307Z,19.54
2022-12-07T20:18:46.201Z,20.28
2022-12-07T20:21:12.466Z,20.73
2022-12-07T20:23:38.707Z,21.90
2022-12-07T20:26:04.951Z,21.35
2022-12-07T20:28:31.194Z,20.48
2022-12-07T20:30:57.480Z,20.23
2022-12-07T20:33:23.825Z,20.84
2022-12-07T20:35:50.104Z,21.33
2022-12-07T20:38:16.364Z,20.77
2022-12-07T20:40:42.615Z,21.60
2022-12-07T20:43:08.863Z,21.46
2022-12-07T20:45:35.123Z,19.89
2022-12-07T20:48:01.385Z,19.06
2022-12-07T20:50:27.635Z,21.10
2022-12-07T20:52:58.858Z,22.06
2022-12-07T20:55:26.643Z,21.18
2022-12-07T20:57:52.905Z,21.47
2022-12-07T21:00:19.150Z,21.53
2022-12-07T21:02:45.491Z,22.55
2022-12-07T21:05:11.769Z,23.45
2022-12-07T21:07:38.056Z,24.31
2022-12-07T21:10:04.335Z,25.81
2022-12-07T21:12:30.597Z,26.94
2022-12-07T21:14:56.844Z,24.88
2022-12-07T21:17:23.117Z,23.96
2022-12-07T21:19:49.373Z,23.92
2022-12-07T21:22:15.653Z,24.43
2022-12-07T21:24:41.898Z,24.39
2022-12-07T21:27:08.153Z,23.10
2022-12-07T21:29:43.682Z,24.44
2022-12-07T21:32:11.067Z,22.38
2022-12-07T21:34:37.353Z,21.23
2022-12-07T21:37:03.612Z,21.46
2022-12-07T21:39:29.867Z,22.92
2022-12-07T21:41:56.130Z,27.13
2022-12-07T21:44:22.393Z,24.75
2022-12-07T21:46:48.736Z,24.28
2022-12-07T21:49:15.026Z,24.98
2022-12-07T21:51:41.294Z,25.04
2022-12-07T21:54:07.536Z,23.33
2022-12-07T21:56:33.786Z,22.51
2022-12-07T21:59:00.045Z,22.62
2022-12-07T22:01:26.357Z,24.48
2022-12-07T22:03:52.622Z,23.10
2022-12-07T22:06:18.881Z,24.34
2022-12-07T22:08:45.141Z,25.36
2022-12-07T22:11:11.397Z,24.65
2022-12-07T22:13:37.662Z,23.78
2022-12-07T22:16:03.962Z,23.66
2022-12-07T22:18:30.234Z,24.09
2022-12-07T22:20:57.760Z,24.60
2022-12-07T22:23:24.030Z,24.49
2022-12-07T22:25:50.277Z,25.83
2022-12-07T22:28:16.529Z,25.30
2022-12-07T22:30:42.771Z,25.12
2022-12-07T22:33:09.013Z,25.14
2022-12-07T22:35:35.281Z,24.62
2022-12-07T22:38:01.545Z,25.32
2022-12-07T22:40:27.805Z,26.20
2022-12-07T22:42:54.102Z,26.64
2022-12-07T22:45:20.347Z,26.10
2022-12-07T22:47:46.614Z,26.05
2022-12-07T22:50:12.857Z,26.68
2022-12-07T22:52:39.115Z,25.69
2022-12-07T22:55:05.597Z,26.33
2022-12-07T22:57:32.093Z,26.39
2022-12-07T22:59:58.334Z,26.81
2022-12-07T23:02:24.640Z,26.28
2022-12-07T23:04:50.899Z,26.63
2022-12-07T23:07:17.137Z,26.69
2022-12-07T23:09:43.426Z,26.67
2022-12-07T23:12:10.737Z,26.91
2022-12-07T23:14:36.993Z,27.51
2022-12-07T23:17:03.253Z,27.71
2022-12-07T23:19:29.494Z,26.92
2022-12-07T23:21:55.747Z,27.18
2022-12-07T23:24:22.049Z,27.27
2022-12-07T23:26:48.290Z,26.47
2022-12-07T23:29:17.812Z,27.09
2022-12-07T23:31:44.633Z,27.55
2022-12-07T23:34:10.957Z,26.98
2022-12-07T23:36:37.206Z,28.37
2022-12-07T23:39:03.460Z,29.88
2022-12-07T23:41:29.708Z,29.12
2022-12-07T23:43:55.981Z,27.45
2022-12-07T23:46:22.295Z,26.46
2022-12-07T23:48:48.604Z,25.52
2022-12-07T23:51:14.907Z,25.79
2022-12-07T23:53:41.176Z,25.98
2022-12-07T23:56:07.429Z,25.22
2022-12-07T23:58:33.684Z,25.08
